createdAt,value
2023-04-11T00:00:17.332Z,5.60
2023-04-11T00:00:38.444Z,6.60
2023-04-11T00:00:59.543Z,4.50
2023-04-11T00:01:20.658Z,4.40
2023-04-11T00:01:41.779Z,5.30
2023-04-11T00:02:02.901Z,5.00
2023-04-11T00:02:24.046Z,4.60
2023-04-11T00:02:45.327Z,4.60
2023-04-11T00:03:06.641Z,4.80
2023-04-11T00:03:28.042Z,4.40
2023-04-11T00:03:49.551Z,4.00
2023-04-11T00:04:10.951Z,4.50
2023-04-11T00:04:32.199Z,4.50
2023-04-11T00:04:53.406Z,5.10
2023-04-11T00:05:14.473Z,4.90
2023-04-11T00:05:35.529Z,4.60
2023-04-11T00:05:56.624Z,5.00
2023-04-11T00:06:17.689Z,4.70
2023-04-11T00:06:38.751Z,4.00
2023-04-11T00:06:59.803Z,5.20
2023-04-11T00:07:20.858Z,5.70
2023-04-11T00:07:41.909Z,4.30
2023-04-11T00:08:02.962Z,5.60
2023-04-11T00:08:24.043Z,5.90
2023-04-11T00:08:45.084Z,5.30
2023-04-11T00:09:06.134Z,5.60
2023-04-11T00:09:27.205Z,6.80
2023-04-11T00:09:48.249Z,6.30
2023-04-11T00:10:09.323Z,5.60
2023-04-11T00:10:30.368Z,4.80
2023-04-11T00:10:51.429Z,5.40
2023-04-11T00:11:12.511Z,5.20
2023-04-11T00:11:33.652Z,4.80
2023-04-11T00:11:54.701Z,5.60
2023-04-11T00:12:15.744Z,5.80
2023-04-11T00:12:36.798Z,5.70
2023-04-11T00:12:57.861Z,4.60
2023-04-11T00:13:18.922Z,4.80
2023-04-11T00:13:40.002Z,5.60
2023-04-11T00:14:01.048Z,5.10
2023-04-11T00:14:22.119Z,4.60
2023-04-11T00:14:43.162Z,4.90
2023-04-11T00:15:04.235Z,4.50
2023-04-11T00:15:25.334Z,5.20
2023-04-11T00:15:46.370Z,4.70
2023-04-11T00:16:07.462Z,4.60
2023-04-11T00:16:28.559Z,5.10
2023-04-11T00:16:49.970Z,4.80
2023-04-11T00:17:11.112Z,5.80
2023-04-11T00:17:32.208Z,5.80
2023-04-11T00:17:53.271Z,4.70
2023-04-11T00:18:14.306Z,4.60
2023-04-11T00:18:35.391Z,5.20
2023-04-11T00:18:56.563Z,4.80
2023-04-11T00:19:17.728Z,4.80
2023-04-11T00:19:38.797Z,4.40
2023-04-11T00:19:59.853Z,6.20
2023-04-11T00:20:20.927Z,4.70
2023-04-11T00:20:41.986Z,4.60
2023-04-11T00:21:03.034Z,4.40
2023-04-11T00:21:24.108Z,4.60
2023-04-11T00:21:45.193Z,5.20
2023-04-11T00:22:06.289Z,5.20
2023-04-11T00:22:27.345Z,5.30
2023-04-11T00:22:48.407Z,5.10
2023-04-11T00:23:09.474Z,4.60
2023-04-11T00:23:30.529Z,4.40
2023-04-11T00:23:51.602Z,3.70
2023-04-11T00:24:12.687Z,4.80
2023-04-11T00:24:33.754Z,5.40
2023-04-11T00:24:54.781Z,4.50
2023-04-11T00:25:15.845Z,3.90
2023-04-11T00:25:36.909Z,4.00
2023-04-11T00:25:57.966Z,4.80
2023-04-11T00:26:19.007Z,4.20
2023-04-11T00:26:40.101Z,4.70
2023-04-11T00:27:01.353Z,4.30
2023-04-11T00:27:22.430Z,3.70
2023-04-11T00:27:43.486Z,3.50
2023-04-11T00:28:04.550Z,4.20
2023-04-11T00:28:25.621Z,3.90
2023-04-11T00:28:46.669Z,3.80
2023-04-11T00:29:07.719Z,4.50
2023-04-11T00:29:28.781Z,4.00
2023-04-11T00:29:49.854Z,4.00
2023-04-11T00:30:10.908Z,3.90
2023-04-11T00:30:31.958Z,3.70
2023-04-11T00:30:53.050Z,3.80
2023-04-11T00:31:14.328Z,3.00
2023-04-11T00:31:35.427Z,3.60
2023-04-11T00:31:56.504Z,2.90
2023-04-11T00:32:17.744Z,4.00
2023-04-11T00:32:38.868Z,3.90
2023-04-11T00:32:59.944Z,4.60
2023-04-11T00:33:20.961Z,3.60
2023-04-11T00:33:42.020Z,3.80
2023-04-11T00:34:03.076Z,2.90
2023-04-11T00:34:24.152Z,3.10
2023-04-11T00:34:45.224Z,3.40
2023-04-11T00:35:06.281Z,3.50
2023-04-11T00:35:27.347Z,4.10
2023-04-11T00:35:48.437Z,3.90
2023-04-11T00:36:09.520Z,3.30
2023-04-11T00:36:30.633Z,5.60
2023-04-11T00:36:51.808Z,4.90
2023-04-11T00:37:12.894Z,3.70
2023-04-11T00:37:33.994Z,3.80
2023-04-11T00:37:55.085Z,4.80
2023-04-11T00:38:16.141Z,4.10
2023-04-11T00:38:37.220Z,3.80
2023-04-11T00:38:58.374Z,3.20
2023-04-11T00:39:19.584Z,3.50
2023-04-11T00:39:40.643Z,3.80
2023-04-11T00:40:01.699Z,3.50
2023-04-11T00:40:22.785Z,4.20
2023-04-11T00:40:43.809Z,4.40
2023-04-11T00:41:04.908Z,3.80
2023-04-11T00:41:25.941Z,3.10
2023-04-11T00:41:47.009Z,3.60
2023-04-11T00:42:08.065Z,3.70
2023-04-11T00:42:29.125Z,3.60
2023-04-11T00:42:50.375Z,4.90
2023-04-11T00:43:11.637Z,4.00
2023-04-11T00:43:32.703Z,4.00
2023-04-11T00:43:53.757Z,5.10
2023-04-11T00:44:14.810Z,4.90
2023-04-11T00:44:35.879Z,4.50
2023-04-11T00:44:56.926Z,4.20
2023-04-11T00:45:17.982Z,4.40
2023-04-11T00:45:39.110Z,4.20
2023-04-11T00:46:00.214Z,4.30
2023-04-11T00:46:21.393Z,4.00
2023-04-11T00:46:43.622Z,5.00
2023-04-11T00:47:05.898Z,4.60
2023-04-11T00:47:26.965Z,3.90
2023-04-11T00:47:48.043Z,4.50
2023-04-11T00:48:09.263Z,4.90
2023-04-11T00:48:30.399Z,3.80
2023-04-11T00:48:51.462Z,5.10
2023-04-11T00:49:12.519Z,4.30
2023-04-11T00:49:33.590Z,4.30
2023-04-11T00:49:54.653Z,4.40
2023-04-11T00:50:15.696Z,4.60
2023-04-11T00:50:36.761Z,3.90
2023-04-11T00:50:57.819Z,4.20
2023-04-11T00:51:18.876Z,4.20
2023-04-11T00:51:39.944Z,4.10
2023-04-11T00:52:01.072Z,5.00
2023-04-11T00:52:22.118Z,4.90
2023-04-11T00:52:43.168Z,4.00
2023-04-11T00:53:04.220Z,4.90
2023-04-11T00:53:25.498Z,4.20
2023-04-11T00:53:46.781Z,3.50
2023-04-11T00:54:07.832Z,3.70
2023-04-11T00:54:28.877Z,3.30
2023-04-11T00:54:49.930Z,4.40
2023-04-11T00:55:10.993Z,4.20
2023-04-11T00:55:32.063Z,5.10
2023-04-11T00:55:53.148Z,3.80
2023-04-11T00:56:14.174Z,4.70
2023-04-11T00:56:35.238Z,4.70
2023-04-11T00:56:56.292Z,3.90
2023-04-11T00:57:17.346Z,4.30
2023-04-11T00:57:38.399Z,4.60
2023-04-11T00:57:59.464Z,3.80
2023-04-11T00:58:20.512Z,2.80
2023-04-11T00:58:41.620Z,3.20
2023-04-11T00:59:02.854Z,3.20
2023-04-11T00:59:23.918Z,3.40
2023-04-11T00:59:44.966Z,3.10
2023-04-11T01:00:06.030Z,2.90
2023-04-11T01:00:27.075Z,2.70
2023-04-11T01:00:48.176Z,3.00
2023-04-11T01:01:09.466Z,3.50
2023-04-11T01:01:30.632Z,3.10
2023-04-11T01:01:51.822Z,3.80
2023-04-11T01:02:13.073Z,3.90
2023-04-11T01:02:34.346Z,3.80
2023-04-11T01:02:55.559Z,3.80
2023-04-11T01:03:16.738Z,3.50
2023-04-11T01:03:37.992Z,3.40
2023-04-11T01:03:59.245Z,3.60
2023-04-11T01:04:20.421Z,3.80
2023-04-11T01:04:41.493Z,3.30
2023-04-11T01:05:02.542Z,3.20
2023-04-11T01:05:23.600Z,3.40
2023-04-11T01:05:44.714Z,3.50
2023-04-11T01:06:05.769Z,3.70
2023-04-11T01:06:26.822Z,3.30
2023-04-11T01:06:47.877Z,3.20
2023-04-11T01:07:08.952Z,4.10
2023-04-11T01:07:30.023Z,2.90
2023-04-11T01:07:51.061Z,3.00
2023-04-11T01:08:12.122Z,3.00
2023-04-11T01:08:33.203Z,2.80
2023-04-11T01:08:54.573Z,3.00
2023-04-11T01:09:15.984Z,2.40
2023-04-11T01:09:37.055Z,3.50
2023-04-11T01:09:58.131Z,4.00
2023-04-11T01:10:19.186Z,2.90
2023-04-11T01:10:40.253Z,3.50
2023-04-11T01:11:01.334Z,3.50
2023-04-11T01:11:22.400Z,3.20
2023-04-11T01:11:43.439Z,4.00
2023-04-11T01:12:04.525Z,4.50
2023-04-11T01:12:25.576Z,3.20
2023-04-11T01:12:46.648Z,2.80
2023-04-11T01:13:07.704Z,3.90
2023-04-11T01:13:28.757Z,2.80
2023-04-11T01:13:49.804Z,2.80
2023-04-11T01:14:10.870Z,2.40
2023-04-11T01:14:31.947Z,2.40
2023-04-11T01:14:53.058Z,2.50
2023-04-11T01:15:14.098Z,3.20
2023-04-11T01:15:35.168Z,2.90
2023-04-11T01:15:56.240Z,3.00
2023-04-11T01:16:17.295Z,2.50
2023-04-11T01:16:38.387Z,2.30
2023-04-11T01:16:59.598Z,2.30
2023-04-11T01:17:20.652Z,2.20
2023-04-11T01:17:41.890Z,2.20
2023-04-11T01:18:03.084Z,1.90
2023-04-11T01:18:24.157Z,2.10
2023-04-11T01:18:45.206Z,2.40
2023-04-11T01:19:06.255Z,2.70
2023-04-11T01:19:27.320Z,2.80
2023-04-11T01:19:48.596Z,3.10
2023-04-11T01:20:09.694Z,2.80
2023-04-11T01:20:30.756Z,2.70
2023-04-11T01:20:51.809Z,2.40
2023-04-11T01:21:12.862Z,3.10
2023-04-11T01:21:33.920Z,3.40
2023-04-11T01:21:54.972Z,3.40
2023-04-11T01:22:16.032Z,2.80
2023-04-11T01:22:37.077Z,2.80
2023-04-11T01:22:58.150Z,3.20
2023-04-11T01:23:19.205Z,3.00
2023-04-11T01:23:40.268Z,2.60
2023-04-11T01:24:01.385Z,3.40
2023-04-11T01:24:22.448Z,3.00
2023-04-11T01:24:43.496Z,2.40
2023-04-11T01:25:04.583Z,2.50
2023-04-11T01:25:25.695Z,3.30
2023-04-11T01:25:46.762Z,3.20
2023-04-11T01:26:07.809Z,3.10
2023-04-11T01:26:28.852Z,2.20
2023-04-11T01:26:49.936Z,2.60
2023-04-11T01:27:10.972Z,2.30
2023-04-11T01:27:32.044Z,2.40
2023-04-11T01:27:53.104Z,2.60
2023-04-11T01:28:14.179Z,2.70
2023-04-11T01:28:35.233Z,2.40
2023-04-11T01:28:56.428Z,2.30
2023-04-11T01:29:17.558Z,2.30
2023-04-11T01:29:38.639Z,2.60
2023-04-11T01:29:59.670Z,3.20
2023-04-11T01:30:20.926Z,2.50
2023-04-11T01:30:42.241Z,2.50
2023-04-11T01:31:03.313Z,2.80
2023-04-11T01:31:24.379Z,3.50
2023-04-11T01:31:45.440Z,3.90
2023-04-11T01:32:06.491Z,3.20
2023-04-11T01:32:27.569Z,3.00
2023-04-11T01:32:48.605Z,2.40
2023-04-11T01:33:09.668Z,2.80
2023-04-11T01:33:30.740Z,2.60
2023-04-11T01:33:51.779Z,2.80
2023-04-11T01:34:12.929Z,3.00
2023-04-11T01:34:33.995Z,2.40
2023-04-11T01:34:55.043Z,2.30
2023-04-11T01:35:16.097Z,2.50
2023-04-11T01:35:37.366Z,2.00
2023-04-11T01:35:58.685Z,3.30
2023-04-11T01:36:19.714Z,2.70
2023-04-11T01:36:40.779Z,2.10
2023-04-11T01:37:01.871Z,3.60
2023-04-11T01:37:22.959Z,3.70
2023-04-11T01:37:44.009Z,2.90
2023-04-11T01:38:05.080Z,2.70
2023-04-11T01:38:26.141Z,3.00
2023-04-11T01:38:47.196Z,3.40
2023-04-11T01:39:08.283Z,3.80
2023-04-11T01:39:29.320Z,3.70
2023-04-11T01:39:50.385Z,2.90
2023-04-11T01:40:11.418Z,2.70
2023-04-11T01:40:32.485Z,2.50
2023-04-11T01:40:53.741Z,3.00
2023-04-11T01:41:15.053Z,2.70
2023-04-11T01:41:36.121Z,2.70
2023-04-11T01:41:57.891Z,3.00
2023-04-11T01:42:18.992Z,2.90
2023-04-11T01:42:40.047Z,2.40
2023-04-11T01:43:01.099Z,3.10
2023-04-11T01:43:22.184Z,2.90
2023-04-11T01:43:43.233Z,2.70
2023-04-11T01:44:04.283Z,3.70
2023-04-11T01:44:25.355Z,3.50
2023-04-11T01:44:46.411Z,3.40
2023-04-11T01:45:07.491Z,3.50
2023-04-11T01:45:28.554Z,2.50
2023-04-11T01:45:49.613Z,2.80
2023-04-11T01:46:10.721Z,2.90
2023-04-11T01:46:31.785Z,2.30
2023-04-11T01:46:52.864Z,2.60
2023-04-11T01:47:13.914Z,2.60
2023-04-11T01:47:35.040Z,2.30
2023-04-11T01:47:56.173Z,2.30
2023-04-11T01:48:17.307Z,2.90
2023-04-11T01:48:38.573Z,3.30
2023-04-11T01:48:59.809Z,2.80
2023-04-11T01:49:20.865Z,2.20
2023-04-11T01:49:41.951Z,2.00
2023-04-11T01:50:03.004Z,2.40
2023-04-11T01:50:24.051Z,2.20
2023-04-11T01:50:45.111Z,2.20
2023-04-11T01:51:06.168Z,2.50
2023-04-11T01:51:27.296Z,2.40
2023-04-11T01:51:48.392Z,2.70
2023-04-11T01:52:09.437Z,2.10
2023-04-11T01:52:30.545Z,2.70
2023-04-11T01:52:51.652Z,2.50
2023-04-11T01:53:12.692Z,2.40
2023-04-11T01:53:33.728Z,2.10
2023-04-11T01:53:54.784Z,1.80
2023-04-11T01:54:15.864Z,2.90
2023-04-11T01:54:36.976Z,2.80
2023-04-11T01:54:58.031Z,2.60
2023-04-11T01:55:19.096Z,2.50
2023-04-11T01:55:40.159Z,2.30
2023-04-11T01:56:01.229Z,2.00
2023-04-11T01:56:22.272Z,1.80
2023-04-11T01:56:43.530Z,1.70
2023-04-11T01:57:04.611Z,1.80
2023-04-11T01:57:25.664Z,3.80
2023-04-11T01:57:46.770Z,2.20
2023-04-11T01:58:07.845Z,2.20
2023-04-11T01:58:28.890Z,2.10
2023-04-11T01:58:49.944Z,2.70
2023-04-11T01:59:11.002Z,1.80
2023-04-11T01:59:32.062Z,2.50
2023-04-11T01:59:53.127Z,2.00
2023-04-11T02:00:14.224Z,2.10
2023-04-11T02:00:35.241Z,2.20
2023-04-11T02:00:56.302Z,2.00
2023-04-11T02:01:17.410Z,2.50
2023-04-11T02:01:38.539Z,2.10
2023-04-11T02:01:59.690Z,2.20
2023-04-11T02:02:20.874Z,2.40
2023-04-11T02:02:42.049Z,2.00
2023-04-11T02:03:03.341Z,1.90
2023-04-11T02:03:24.513Z,2.00
2023-04-11T02:03:45.692Z,2.00
2023-04-11T02:04:06.836Z,2.50
2023-04-11T02:04:28.062Z,2.20
2023-04-11T02:04:49.118Z,2.00
2023-04-11T02:05:10.169Z,1.70
2023-04-11T02:05:31.226Z,2.90
2023-04-11T02:05:52.272Z,2.90
2023-04-11T02:06:13.336Z,2.70
2023-04-11T02:06:34.387Z,2.20
2023-04-11T02:06:55.453Z,2.00
2023-04-11T02:07:16.547Z,1.80
2023-04-11T02:07:37.649Z,2.50
2023-04-11T02:07:58.696Z,2.70
2023-04-11T02:08:19.754Z,2.60
2023-04-11T02:08:40.813Z,2.30
2023-04-11T02:09:01.948Z,2.30
2023-04-11T02:09:23.031Z,2.10
2023-04-11T02:09:44.111Z,3.00
2023-04-11T02:10:05.151Z,2.30
2023-04-11T02:10:26.199Z,2.30
2023-04-11T02:10:47.302Z,2.50
2023-04-11T02:11:08.428Z,2.60
2023-04-11T02:11:29.455Z,2.50
2023-04-11T02:11:50.524Z,2.40
2023-04-11T02:12:11.577Z,2.00
2023-04-11T02:12:32.666Z,1.60
2023-04-11T02:12:53.921Z,2.00
2023-04-11T02:13:14.983Z,2.00
2023-04-11T02:13:36.058Z,2.90
2023-04-11T02:13:57.104Z,2.40
2023-04-11T02:14:18.165Z,2.80
2023-04-11T02:14:39.215Z,1.90
2023-04-11T02:15:00.278Z,2.30
2023-04-11T02:15:21.328Z,2.80
2023-04-11T02:15:42.396Z,3.30
2023-04-11T02:16:03.540Z,2.60
2023-04-11T02:16:24.639Z,2.60
2023-04-11T02:16:45.684Z,1.90
2023-04-11T02:17:06.731Z,1.60
2023-04-11T02:17:27.815Z,2.20
2023-04-11T02:17:48.922Z,2.70
2023-04-11T02:18:09.999Z,2.80
2023-04-11T02:18:31.057Z,2.40
2023-04-11T02:18:52.112Z,2.50
2023-04-11T02:19:13.169Z,2.20
2023-04-11T02:19:34.231Z,1.70
2023-04-11T02:19:55.282Z,1.80
2023-04-11T02:20:16.353Z,2.20
2023-04-11T02:20:37.395Z,2.00
2023-04-11T02:20:58.471Z,1.80
2023-04-11T02:21:19.517Z,2.90
2023-04-11T02:21:40.588Z,2.20
2023-04-11T02:22:01.633Z,1.90
2023-04-11T02:22:22.696Z,1.70
2023-04-11T02:22:43.756Z,2.50
2023-04-11T02:23:05.013Z,2.20
2023-04-11T02:23:26.266Z,2.20
2023-04-11T02:23:47.317Z,2.00
2023-04-11T02:24:08.391Z,2.90
2023-04-11T02:24:29.473Z,2.90
2023-04-11T02:24:50.511Z,2.00
2023-04-11T02:25:11.561Z,2.10
2023-04-11T02:25:32.633Z,2.10
2023-04-11T02:25:53.697Z,1.70
2023-04-11T02:26:14.745Z,2.10
2023-04-11T02:26:35.805Z,2.20
2023-04-11T02:26:56.869Z,1.70
2023-04-11T02:27:17.927Z,2.10
2023-04-11T02:27:38.987Z,2.20
2023-04-11T02:28:00.052Z,2.20
2023-04-11T02:28:21.157Z,2.70
2023-04-11T02:28:42.244Z,2.20
2023-04-11T02:29:03.289Z,2.80
2023-04-11T02:29:24.355Z,3.30
2023-04-11T02:29:45.403Z,2.80
2023-04-11T02:30:06.471Z,2.30
2023-04-11T02:30:27.529Z,2.30
2023-04-11T02:30:48.709Z,2.50
2023-04-11T02:31:09.859Z,2.60
2023-04-11T02:31:31.075Z,2.70
2023-04-11T02:31:52.301Z,3.10
2023-04-11T02:32:13.477Z,2.30
2023-04-11T02:32:34.550Z,2.50
2023-04-11T02:32:55.688Z,2.40
2023-04-11T02:33:16.711Z,1.70
2023-04-11T02:33:37.962Z,2.50
2023-04-11T02:33:59.049Z,3.40
2023-04-11T02:34:20.102Z,3.10
2023-04-11T02:34:41.176Z,2.10
2023-04-11T02:35:02.213Z,2.40
2023-04-11T02:35:23.277Z,2.10
2023-04-11T02:35:44.359Z,2.00
2023-04-11T02:36:05.541Z,2.30
2023-04-11T02:36:26.596Z,2.50
2023-04-11T02:36:47.655Z,2.00
2023-04-11T02:37:08.724Z,2.40
2023-04-11T02:37:29.777Z,2.50
2023-04-11T02:37:50.825Z,2.60
2023-04-11T02:38:11.888Z,2.60
2023-04-11T02:38:33.028Z,3.10
2023-04-11T02:38:54.413Z,1.80
2023-04-11T02:39:15.655Z,2.30
2023-04-11T02:39:36.764Z,3.20
2023-04-11T02:39:57.833Z,2.20
2023-04-11T02:40:18.856Z,2.10
2023-04-11T02:40:39.957Z,2.50
2023-04-11T02:41:01.030Z,3.00
2023-04-11T02:41:22.070Z,2.40
2023-04-11T02:41:43.122Z,3.20
2023-04-11T02:42:04.186Z,1.70
2023-04-11T02:42:25.254Z,1.80
2023-04-11T02:42:46.300Z,2.70
2023-04-11T02:43:07.357Z,2.00
2023-04-11T02:43:28.423Z,2.50
2023-04-11T02:43:49.477Z,2.00
2023-04-11T02:44:10.714Z,2.00
2023-04-11T02:44:31.960Z,1.80
2023-04-11T02:44:53.023Z,2.00
2023-04-11T02:45:14.083Z,2.00
2023-04-11T02:45:35.148Z,2.20
2023-04-11T02:46:05.545Z,3.00
2023-04-11T02:46:23.243Z,2.90
2023-04-11T02:46:44.355Z,1.70
2023-04-11T02:47:05.501Z,1.70
2023-04-11T02:47:26.728Z,2.70
2023-04-11T02:47:47.770Z,2.90
2023-04-11T02:48:08.808Z,2.50
2023-04-11T02:48:29.860Z,2.20
2023-04-11T02:48:50.913Z,2.30
2023-04-11T02:49:12.162Z,2.50
2023-04-11T02:49:33.402Z,2.20
2023-04-11T02:49:54.458Z,1.70
2023-04-11T02:50:15.503Z,3.00
2023-04-11T02:50:36.567Z,2.80
2023-04-11T02:50:57.628Z,2.40
2023-04-11T02:51:18.695Z,2.80
2023-04-11T02:51:39.739Z,2.90
2023-04-11T02:52:00.808Z,3.30
2023-04-11T02:52:21.870Z,3.00
2023-04-11T02:52:42.922Z,2.50
2023-04-11T02:53:03.981Z,2.00
2023-04-11T02:53:25.026Z,3.10
2023-04-11T02:53:46.110Z,3.50
2023-04-11T02:54:07.182Z,2.60
2023-04-11T02:54:28.434Z,2.30
2023-04-11T02:54:49.548Z,1.70
2023-04-11T02:55:10.593Z,3.10
2023-04-11T02:55:31.644Z,3.10
2023-04-11T02:55:52.735Z,2.50
2023-04-11T02:56:13.815Z,2.20
2023-04-11T02:56:34.850Z,2.80
2023-04-11T02:56:55.908Z,2.00
2023-04-11T02:57:16.954Z,1.80
2023-04-11T02:57:38.002Z,2.40
2023-04-11T02:57:59.056Z,2.10
2023-04-11T02:58:20.122Z,2.00
2023-04-11T02:58:41.185Z,2.00
2023-04-11T02:59:02.230Z,2.50
2023-04-11T02:59:23.293Z,2.30
2023-04-11T02:59:44.412Z,2.10
2023-04-11T03:00:05.477Z,2.60
2023-04-11T03:00:26.564Z,2.60
2023-04-11T03:00:47.617Z,1.80
2023-04-11T03:01:08.662Z,2.40
2023-04-11T03:01:29.748Z,2.90
2023-04-11T03:01:50.919Z,3.20
2023-04-11T03:02:12.097Z,2.20
2023-04-11T03:02:33.349Z,3.20
2023-04-11T03:02:54.491Z,2.80
2023-04-11T03:03:15.862Z,2.00
2023-04-11T03:03:37.009Z,1.80
2023-04-11T03:03:58.206Z,2.00
2023-04-11T03:04:19.317Z,2.40
2023-04-11T03:04:40.411Z,2.70
2023-04-11T03:05:01.534Z,2.20
2023-04-11T03:05:22.764Z,2.10
2023-04-11T03:05:43.835Z,2.50
2023-04-11T03:06:04.890Z,3.00
2023-04-11T03:06:25.967Z,3.10
2023-04-11T03:06:47.008Z,2.40
2023-04-11T03:07:08.068Z,2.00
2023-04-11T03:07:29.126Z,2.80
2023-04-11T03:07:50.186Z,2.60
2023-04-11T03:08:11.251Z,2.60
2023-04-11T03:08:32.304Z,2.20
2023-04-11T03:08:53.437Z,3.00
2023-04-11T03:09:14.587Z,4.60
2023-04-11T03:09:35.681Z,2.80
2023-04-11T03:09:56.740Z,2.60
2023-04-11T03:10:17.965Z,3.30
2023-04-11T03:10:39.068Z,2.20
2023-04-11T03:11:00.164Z,2.40
2023-04-11T03:11:21.173Z,2.00
2023-04-11T03:11:42.254Z,2.00
2023-04-11T03:12:03.304Z,2.30
2023-04-11T03:12:24.348Z,1.70
2023-04-11T03:12:45.401Z,2.30
2023-04-11T03:13:06.477Z,2.80
2023-04-11T03:13:27.513Z,3.90
2023-04-11T03:13:48.583Z,3.90
2023-04-11T03:14:09.634Z,2.90
2023-04-11T03:14:30.706Z,3.20
2023-04-11T03:14:51.757Z,3.10
2023-04-11T03:15:12.803Z,2.20
2023-04-11T03:15:33.896Z,2.20
2023-04-11T03:15:54.968Z,2.90
2023-04-11T03:16:16.050Z,2.50
2023-04-11T03:16:37.104Z,2.00
2023-04-11T03:16:58.177Z,2.00
2023-04-11T03:17:19.240Z,2.40
2023-04-11T03:17:40.300Z,2.40
2023-04-11T03:18:01.391Z,2.40
2023-04-11T03:18:22.470Z,2.10
2023-04-11T03:18:43.516Z,2.00
2023-04-11T03:19:04.579Z,2.60
2023-04-11T03:19:25.637Z,3.00
2023-04-11T03:19:46.683Z,3.50
2023-04-11T03:20:07.748Z,1.90
2023-04-11T03:20:28.803Z,2.10
2023-04-11T03:20:49.896Z,2.30
2023-04-11T03:21:11.157Z,2.80
2023-04-11T03:21:32.252Z,2.70
2023-04-11T03:21:53.290Z,2.20
2023-04-11T03:22:14.362Z,2.90
2023-04-11T03:22:35.407Z,3.80
2023-04-11T03:22:56.466Z,2.30
2023-04-11T03:23:17.523Z,2.50
2023-04-11T03:23:38.588Z,2.70
2023-04-11T03:23:59.652Z,3.00
2023-04-11T03:24:20.695Z,2.50
2023-04-11T03:24:41.777Z,3.00
2023-04-11T03:25:02.847Z,3.10
2023-04-11T03:25:23.879Z,2.90
2023-04-11T03:25:44.933Z,2.90
2023-04-11T03:26:06.051Z,2.00
2023-04-11T03:26:27.166Z,1.90
2023-04-11T03:26:48.254Z,2.90
2023-04-11T03:27:09.322Z,2.40
2023-04-11T03:27:30.367Z,2.30
2023-04-11T03:27:51.426Z,1.80
2023-04-11T03:28:12.487Z,2.10
2023-04-11T03:28:33.548Z,2.50
2023-04-11T03:28:54.708Z,3.30
2023-04-11T03:29:15.882Z,3.40
2023-04-11T03:29:36.988Z,3.60
2023-04-11T03:29:58.027Z,2.70
2023-04-11T03:30:19.092Z,2.10
2023-04-11T03:30:40.146Z,1.70
2023-04-11T03:31:01.259Z,2.60
2023-04-11T03:31:22.425Z,2.90
2023-04-11T03:31:43.746Z,3.30
2023-04-11T03:32:04.817Z,2.90
2023-04-11T03:32:25.890Z,2.50
2023-04-11T03:32:46.968Z,3.50
2023-04-11T03:33:08.033Z,3.30
2023-04-11T03:33:29.094Z,2.90
2023-04-11T03:33:50.151Z,2.60
2023-04-11T03:34:11.240Z,2.80
2023-04-11T03:34:32.272Z,1.90
2023-04-11T03:34:53.326Z,2.60
2023-04-11T03:35:14.390Z,2.20
2023-04-11T03:35:35.490Z,1.70
2023-04-11T03:35:56.640Z,1.90
2023-04-11T03:36:17.747Z,1.90
2023-04-11T03:36:38.817Z,2.40
2023-04-11T03:37:00.050Z,1.80
2023-04-11T03:37:21.098Z,2.10
2023-04-11T03:37:42.169Z,2.20
2023-04-11T03:38:03.215Z,3.20
2023-04-11T03:38:24.289Z,2.90
2023-04-11T03:38:45.458Z,3.00
2023-04-11T03:39:06.518Z,2.40
2023-04-11T03:39:27.561Z,2.60
2023-04-11T03:39:48.618Z,2.80
2023-04-11T03:40:09.700Z,2.60
2023-04-11T03:40:30.735Z,2.70
2023-04-11T03:40:51.810Z,1.80
2023-04-11T03:41:12.850Z,2.20
2023-04-11T03:41:33.915Z,2.00
2023-04-11T03:41:55.167Z,2.30
2023-04-11T03:42:16.282Z,3.50
2023-04-11T03:42:37.315Z,2.70
2023-04-11T03:42:58.367Z,2.30
2023-04-11T03:43:19.420Z,2.70
2023-04-11T03:43:40.488Z,3.40
2023-04-11T03:44:01.546Z,2.60
2023-04-11T03:44:22.597Z,2.60
2023-04-11T03:44:43.665Z,2.30
2023-04-11T03:45:04.731Z,2.50
2023-04-11T03:45:25.769Z,2.80
2023-04-11T03:45:46.844Z,3.00
2023-04-11T03:46:07.980Z,2.20
2023-04-11T03:46:29.048Z,2.60
2023-04-11T03:46:50.161Z,2.20
2023-04-11T03:47:11.327Z,2.20
2023-04-11T03:47:32.441Z,2.80
2023-04-11T03:47:53.555Z,3.20
2023-04-11T03:48:14.604Z,2.60
2023-04-11T03:48:35.698Z,3.10
2023-04-11T03:48:57.012Z,2.50
2023-04-11T03:49:18.279Z,2.50
2023-04-11T03:49:39.304Z,2.00
2023-04-11T03:50:00.357Z,2.70
2023-04-11T03:50:21.415Z,2.50
2023-04-11T03:50:42.479Z,3.00
2023-04-11T03:51:03.532Z,1.90
2023-04-11T03:51:24.585Z,2.40
2023-04-11T03:51:45.650Z,2.10
2023-04-11T03:52:06.716Z,3.10
2023-04-11T03:52:27.988Z,2.10
2023-04-11T03:52:49.068Z,2.30
2023-04-11T03:53:10.131Z,2.20
2023-04-11T03:53:31.182Z,3.50
2023-04-11T03:53:52.237Z,2.40
2023-04-11T03:54:13.291Z,2.60
2023-04-11T03:54:34.379Z,2.40
2023-04-11T03:54:55.438Z,3.30
2023-04-11T03:55:16.495Z,3.20
2023-04-11T03:55:37.553Z,1.60
2023-04-11T03:55:58.605Z,2.70
2023-04-11T03:56:19.658Z,3.40
2023-04-11T03:56:40.742Z,1.50
2023-04-11T03:57:01.844Z,1.80
2023-04-11T03:57:22.935Z,2.50
2023-04-11T03:57:44.182Z,2.30
2023-04-11T03:58:05.440Z,1.90
2023-04-11T03:58:26.487Z,2.80
2023-04-11T03:58:47.548Z,3.30
2023-04-11T03:59:08.599Z,2.40
2023-04-11T03:59:29.716Z,3.00
2023-04-11T03:59:50.741Z,2.10
2023-04-11T04:00:11.797Z,3.00
2023-04-11T04:00:32.861Z,1.80
2023-04-11T04:00:53.907Z,2.40
2023-04-11T04:01:14.970Z,1.90
2023-04-11T04:01:36.170Z,2.20
2023-04-11T04:01:57.320Z,2.40
2023-04-11T04:02:18.482Z,3.10
2023-04-11T04:02:39.772Z,2.60
2023-04-11T04:03:01.381Z,3.00
2023-04-11T04:03:23.057Z,3.40
2023-04-11T04:03:44.453Z,2.30
2023-04-11T04:04:05.888Z,2.00
2023-04-11T04:04:27.127Z,3.20
2023-04-11T04:04:48.336Z,2.60
2023-04-11T04:05:09.425Z,2.00
2023-04-11T04:05:30.502Z,2.60
2023-04-11T04:05:51.551Z,2.50
2023-04-11T04:06:12.629Z,2.40
2023-04-11T04:06:33.667Z,2.50
2023-04-11T04:06:54.725Z,2.20
2023-04-11T04:07:15.787Z,1.80
2023-04-11T04:07:36.862Z,2.20
2023-04-11T04:07:57.990Z,2.20
2023-04-11T04:08:19.202Z,1.90
2023-04-11T04:08:40.277Z,1.80
2023-04-11T04:09:01.345Z,2.70
2023-04-11T04:09:22.391Z,3.50
2023-04-11T04:09:43.450Z,3.30
2023-04-11T04:10:04.527Z,2.40
2023-04-11T04:10:25.586Z,2.80
2023-04-11T04:10:46.623Z,3.10
2023-04-11T04:11:07.682Z,2.70
2023-04-11T04:11:28.730Z,3.40
2023-04-11T04:11:49.789Z,3.20
2023-04-11T04:12:10.854Z,2.70
2023-04-11T04:12:31.948Z,3.70
2023-04-11T04:12:52.992Z,3.20
2023-04-11T04:13:14.060Z,3.00
2023-04-11T04:13:35.153Z,2.90
2023-04-11T04:13:56.546Z,2.60
2023-04-11T04:14:17.779Z,2.80
2023-04-11T04:14:38.820Z,3.00
2023-04-11T04:14:59.881Z,3.40
2023-04-11T04:15:20.941Z,2.60
2023-04-11T04:15:41.996Z,2.40
2023-04-11T04:16:03.854Z,2.50
2023-04-11T04:16:25.126Z,2.00
2023-04-11T04:16:46.211Z,1.90
2023-04-11T04:17:07.257Z,2.10
2023-04-11T04:17:28.391Z,3.40
2023-04-11T04:17:49.543Z,2.90
2023-04-11T04:18:10.612Z,3.20
2023-04-11T04:18:31.669Z,3.00
2023-04-11T04:18:52.920Z,2.10
2023-04-11T04:19:14.013Z,2.80
2023-04-11T04:19:35.079Z,3.30
2023-04-11T04:19:56.131Z,3.70
2023-04-11T04:20:17.197Z,2.90
2023-04-11T04:20:38.279Z,2.60
2023-04-11T04:20:59.304Z,2.50
2023-04-11T04:21:20.382Z,3.30
2023-04-11T04:21:41.457Z,3.00
2023-04-11T04:22:02.481Z,3.10
2023-04-11T04:22:23.547Z,2.70
2023-04-11T04:22:44.620Z,2.10
2023-04-11T04:23:05.687Z,2.80
2023-04-11T04:23:26.715Z,2.60
2023-04-11T04:23:47.954Z,2.90
2023-04-11T04:24:09.000Z,2.10
2023-04-11T04:24:30.146Z,3.00
2023-04-11T04:24:51.182Z,4.00
2023-04-11T04:25:12.244Z,3.00
2023-04-11T04:25:33.322Z,2.30
2023-04-11T04:25:54.351Z,2.70
2023-04-11T04:26:15.408Z,2.30
2023-04-11T04:26:36.469Z,2.40
2023-04-11T04:26:57.541Z,3.70
2023-04-11T04:27:18.610Z,2.60
2023-04-11T04:27:39.669Z,2.80
2023-04-11T04:28:00.765Z,3.00
2023-04-11T04:28:21.811Z,2.70
2023-04-11T04:28:42.882Z,3.00
2023-04-11T04:29:03.929Z,3.40
2023-04-11T04:29:25.050Z,3.60
2023-04-11T04:29:46.578Z,3.40
2023-04-11T04:30:08.458Z,3.00
2023-04-11T04:30:29.515Z,2.60
2023-04-11T04:30:50.567Z,3.10
2023-04-11T04:31:11.646Z,2.00
2023-04-11T04:31:32.757Z,2.90
2023-04-11T04:31:53.823Z,3.40
2023-04-11T04:32:14.842Z,3.00
2023-04-11T04:32:35.912Z,2.40
2023-04-11T04:32:57.039Z,2.50
2023-04-11T04:33:18.078Z,2.90
2023-04-11T04:33:39.144Z,3.40
2023-04-11T04:34:00.217Z,3.50
2023-04-11T04:34:21.251Z,2.90
2023-04-11T04:34:42.522Z,2.50
2023-04-11T04:35:03.596Z,1.60
2023-04-11T04:35:24.679Z,2.00
2023-04-11T04:35:45.745Z,2.70
2023-04-11T04:36:06.811Z,3.60
2023-04-11T04:36:27.851Z,3.00
2023-04-11T04:36:48.893Z,2.90
2023-04-11T04:37:09.958Z,2.70
2023-04-11T04:37:31.027Z,2.10
2023-04-11T04:37:52.097Z,2.90
2023-04-11T04:38:13.146Z,2.90
2023-04-11T04:38:34.207Z,2.30
2023-04-11T04:38:55.303Z,1.90
2023-04-11T04:39:16.344Z,2.00
2023-04-11T04:39:37.391Z,2.60
2023-04-11T04:39:58.638Z,4.00
2023-04-11T04:40:19.723Z,4.20
2023-04-11T04:40:40.802Z,3.10
2023-04-11T04:41:01.852Z,3.80